MDT,Max TemperatureF,Mean TemperatureF,Min TemperatureF,Max Dew PointF,MeanDew PointF,Min DewpointF,Max Humidity, Mean Humidity, Min Humidity, Max Sea Level PressureIn, Mean Sea Level PressureIn, Min Sea Level PressureIn, Max VisibilityMiles, Mean VisibilityMiles, Min VisibilityMiles, Max Wind SpeedMPH, Mean Wind SpeedMPH, Max Gust SpeedMPH,PrecipitationIn, CloudCover, Events, WindDirDegrees
2013-8-1,36,34,32,34,33,32,100,96,88,29.91,29.77,29.68,,,,13,8,,0.00,,,324
2013-8-2,36,34,31,34,32,30,99,91,82,30.09,30.02,29.92,,,,14,10,,0.01,,,7
2013-8-3,35,33,31,33,31,29,100,89,80,30.10,30.06,29.99,,,,22,8,25,0.00,,,173
2013-8-4,41,36,32,41,36,33,100,97,92,29.98,29.91,29.80,,,,38,20,47,0.03,,,166
2013-8-5,41,38,34,40,38,34,100,96,87,29.96,29.85,29.80,,,,26,19,32,0.02,,,194
2013-8-6,41,38,34,41,38,34,100,99,96,30.11,30.06,29.98,,,,14,8,,0.02,,,270
2013-8-7,33,30,27,36,30,26,100,94,85,30.26,30.20,30.10,,,,22,16,24,0.00,,,352
2013-8-8,37,30,24,34,29,25,100,94,84,30.24,30.16,30.00,,,,21,10,,0.00,,,227
2013-8-9,42,36,30,42,37,29,100,97,73,29.98,29.87,29.78,,,,20,13,,0.01,,,177
2013-8-10,40,37,34,40,36,28,100,95,74,29.91,29.77,29.70,,,,18,9,,0.01,,,22
2013-8-11,34,30,27,32,29,26,99,94,88,30.07,30.04,29.94,,,,17,11,,0.00,,,284
2013-8-12,37,34,30,36,32,31,100,94,81,30.01,29.95,29.86,,,,28,10,34,0.01,,,284
2013-8-13,35,33,31,33,32,31,100,98,91,30.01,29.94,29.81,,,,24,18,28,0.01,,,303
2013-8-14,33,30,26,33,31,25,100,97,90,29.79,29.65,29.56,,,,25,17,,0.02,,,309
2013-8-15,32,28,25,32,27,23,100,94,84,29.74,29.67,29.60,,,,34,24,43,0.04,,,320
2013-8-16,32,31,30,32,31,29,100,97,96,29.62,29.58,29.57,,,,30,23,26,0.03,,,321
2013-8-17,28,27,26,29,27,25,99,95,89,29.58,29.55,29.53,,,,23,16,,0.07,,,285
2013-8-18,27,24,20,26,22,18,99,94,87,29.52,29.47,29.44,,,,29,13,33,0.04,,,333
2013-8-19,20,18,17,18,17,15,96,92,87,29.47,29.45,29.43,,,,16,10,,0.06,,,333
2013-8-20,21,18,15,20,16,15,96,91,85,29.43,29.40,29.31,,,,17,8,,0.05,,,301
2013-8-21,29,24,18,28,22,17,97,91,84,29.35,29.22,29.15,,,,28,20,34,0.01,,,117
2013-8-22,23,22,19,19,18,15,90,83,75,29.56,29.45,29.37,,,,21,15,,0.01,,,141
2013-8-23,28,24,21,23,21,19,93,85,71,29.63,29.61,29.58,,,,15,11,,0.00,,,95
2013-8-24,22,18,15,21,17,13,96,90,77,29.63,29.60,29.57,,,,22,16,,0.00,,,349
2013-8-25,22,20,16,17,16,15,93,88,80,29.73,29.68,29.62,,,,24,18,,0.00,,,353
2013-8-26,22,18,15,19,16,14,96,89,80,29.80,29.77,29.73,,,,21,15,23,0.00,,,343
2013-8-27,25,20,15,24,19,13,99,93,87,29.81,29.75,29.70,,,,21,15,,0.02,,,352
2013-8-28,27,24,20,26,23,20,99,96,92,29.81,29.74,29.70,,,,18,9,,0.01,,,5
2013-8-29,30,24,19,30,26,19,99,97,94,29.82,29.80,29.77,,,,16,10,,0.00,,,346
2013-8-30,28,22,15,28,19,13,99,93,87,29.83,29.80,29.72,,,,17,13,,0.00,,,5
2013-8-31,28,23,18,27,25,23,99,94,83,29.71,29.58,29.48,,,,16,13,,0.01,,,3